Time;durP1;ratioP1;P1;durP2;ratioP2;P2;SDS_P1;SDS_P2;PMS_P1;PMS_P2;Temp;Humidity;BMP_temperature;BMP_pressure;BME280_temperature;BME280_humidity;BME280_pressure;Samples;Min_cycle;Max_cycle;Signal;HPM_P1;HPM_P2
2022/06/22 00:00:20;;;;;;;7.63;4.25;;;11.70;99.90;;;;;;4933055;28;19906;-56
2022/06/22 00:02:50;;;;;;;9.23;4.97;;;11.70;99.90;;;;;;4932791;29;21038;-54
2022/06/22 00:05:49;;;;;;;8.60;5.45;;;12.10;99.90;;;;;;4932929;28;20031;-56
2022/06/22 00:08:35;;;;;;;12.40;4.88;;;12.10;99.90;;;;;;4932785;28;20118;-54
2022/06/22 00:11:07;;;;;;;7.70;5.00;;;11.90;99.90;;;;;;4932838;29;20085;-55
2022/06/22 00:13:33;;;;;;;12.15;5.80;;;11.70;99.90;;;;;;4933090;28;20028;-55
2022/06/22 00:16:03;;;;;;;10.53;5.80;;;11.70;99.90;;;;;;4932847;29;20046;-54
2022/06/22 00:18:34;;;;;;;10.10;5.82;;;11.70;99.90;;;;;;4932753;29;20050;-54
2022/06/22 00:21:15;;;;;;;9.55;6.65;;;11.90;99.90;;;;;;4933075;28;20028;-54
2022/06/22 00:23:44;;;;;;;12.10;6.53;;;12.00;99.90;;;;;;4932739;28;20119;-55
2022/06/22 00:26:25;;;;;;;10.75;5.72;;;12.10;99.90;;;;;;4932809;28;20034;-55
2022/06/22 00:29:05;;;;;;;11.15;6.45;;;12.00;99.90;;;;;;4932546;28;20036;-54
2022/06/22 00:31:38;;;;;;;14.95;7.63;;;11.70;99.90;;;;;;4932674;28;20034;-56
2022/06/22 00:34:06;;;;;;;12.05;7.47;;;11.60;99.90;;;;;;4932624;29;20030;-55
2022/06/22 00:36:36;;;;;;;13.07;7.57;;;11.50;99.90;;;;;;4932597;29;20023;-55
2022/06/22 00:39:28;;;;;;;12.18;7.45;;;11.60;99.90;;;;;;4932636;28;20071;-55
2022/06/22 00:42:15;;;;;;;13.95;8.35;;;11.50;99.90;;;;;;4947178;28;20047;-56
2022/06/22 00:45:21;;;;;;;13.02;7.50;;;11.50;99.90;;;;;;4932670;28;20085;-55
2022/06/22 00:47:58;;;;;;;11.45;7.75;;;11.60;99.90;;;;;;4932248;29;20050;-55
2022/06/22 00:50:36;;;;;;;15.13;8.55;;;11.60;99.90;;;;;;4915372;29;20537;-54
2022/06/22 00:53:01;;;;;;;17.25;8.00;;;11.80;99.90;;;;;;4931878;29;20035;-56
2022/06/22 00:55:35;;;;;;;16.98;9.10;;;11.80;99.90;;;;;;4915102;28;20028;-55
2022/06/22 00:58:11;;;;;;;13.73;8.65;;;12.00;99.90;;;;;;4932305;28;20070;-55
2022/06/22 01:00:40;;;;;;;11.90;8.20;;;12.00;99.90;;;;;;4932458;28;20525;-55
2022/06/22 01:03:24;;;;;;;10.25;7.25;;;12.00;99.90;;;;;;4931943;28;20126;-55
2022/06/22 01:06:00;;;;;;;13.65;7.10;;;12.00;99.90;;;;;;4932328;28;20115;-55
2022/06/22 01:08:28;;;;;;;14.52;7.18;;;12.10;99.90;;;;;;4932100;28;20074;-56
2022/06/22 01:11:00;;;;;;;12.05;7.55;;;12.00;99.90;;;;;;4932272;29;20110;-55
2022/06/22 01:13:44;;;;;;;10.45;7.78;;;12.00;99.90;;;;;;4932119;28;20060;-55
2022/06/22 01:16:22;;;;;;;14.77;8.13;;;12.10;99.90;;;;;;4932669;28;20050;-54
2022/06/22 01:19:01;;;;;;;15.05;7.32;;;12.00;99.90;;;;;;4932142;28;20036;-55
2022/06/22 01:21:37;;;;;;;12.43;7.75;;;11.90;99.90;;;;;;4914765;28;20433;-55
2022/06/22 01:24:18;;;;;;;11.55;6.00;;;11.80;99.90;;;;;;4931836;28;20035;-56
2022/06/22 01:27:08;;;;;;;10.18;6.65;;;11.70;99.90;;;;;;4931224;29;20066;-54
2022/06/22 01:29:34;;;;;;;11.48;6.13;;;11.60;99.90;;;;;;4942377;29;20035;-54
2022/06/22 01:32:15;;;;;;;10.77;7.20;;;11.50;99.90;;;;;;4950892;29;20041;-55
2022/06/22 01:34:44;;;;;;;10.63;6.80;;;11.50;99.90;;;;;;4950732;29;20031;-55
2022/06/22 01:37:16;;;;;;;10.45;6.30;;;11.40;99.90;;;;;;4933388;29;20371;-55
2022/06/22 01:39:41;;;;;;;14.45;7.32;;;11.40;99.90;;;;;;4950964;28;20030;-54
2022/06/22 01:42:32;;;;;;;16.02;7.93;;;11.40;99.90;;;;;;4948982;28;20122;-55
2022/06/22 01:45:21;;;;;;;13.88;8.52;;;11.50;99.90;;;;;;4950708;29;20475;-54
2022/06/22 01:48:05;;;;;;;14.65;8.02;;;11.60;99.90;;;;;;4950422;29;20071;-55
2022/06/22 01:50:57;;;;;;;14.63;9.15;;;11.50;99.90;;;;;;4950465;29;20037;-55
2022/06/22 01:53:35;;;;;;;11.13;7.20;;;11.40;99.90;;;;;;4950722;29;20102;-55
2022/06/22 01:56:45;;;;;;;16.85;7.88;;;11.30;99.90;;;;;;4950470;29;20035;-54
2022/06/22 01:59:21;;;;;;;15.45;7.38;;;11.30;99.90;;;;;;4890939;29;20056;-54
2022/06/22 02:02:11;;;;;;;15.15;6.72;;;11.40;99.90;;;;;;4941691;29;20043;-54
2022/06/22 02:04:52;;;;;;;10.73;7.53;;;11.30;99.90;;;;;;4949378;29;20035;-55
2022/06/22 02:07:44;;;;;;;11.70;6.88;;;11.20;99.90;;;;;;4950286;29;20031;-54
2022/06/22 02:10:38;;;;;;;9.68;6.65;;;11.10;99.90;;;;;;4950456;29;20035;-55
2022/06/22 02:13:31;;;;;;;14.00;7.82;;;11.00;99.90;;;;;;4950075;28;20487;-55
2022/06/22 02:16:10;;;;;;;12.15;8.63;;;10.90;99.90;;;;;;4950060;29;20110;-55
2022/06/22 02:18:58;;;;;;;11.13;7.80;;;10.90;99.90;;;;;;4950015;29;20031;-54
2022/06/22 02:21:42;;;;;;;11.40;7.60;;;10.80;99.90;;;;;;4950050;29;20031;-55
2022/06/22 02:24:28;;;;;;;10.77;7.22;;;10.80;99.90;;;;;;4950011;29;20074;-55
2022/06/22 02:26:54;;;;;;;11.48;8.52;;;11.00;99.90;;;;;;4949918;29;20031;-55
2022/06/22 02:29:28;;;;;;;13.13;8.35;;;10.90;99.90;;;;;;4949875;29;20385;-55
2022/06/22 02:31:58;;;;;;;18.10;9.45;;;10.80;99.90;;;;;;4949874;29;20040;-55
2022/06/22 02:34:24;;;;;;;11.80;8.48;;;10.70;99.90;;;;;;4950004;29;20027;-54
2022/06/22 02:36:53;;;;;;;13.97;8.47;;;10.70;99.90;;;;;;4949953;29;20061;-55
2022/06/22 02:39:22;;;;;;;13.77;8.45;;;10.80;99.90;;;;;;4949778;29;20027;-55
2022/06/22 02:44:40;;;;;;;14.05;8.13;;;10.60;99.90;;;;;;4950040;29;20156;-56
2022/06/22 02:47:26;;;;;;;10.98;6.85;;;10.60;99.90;;;;;;4949561;29;20030;-55
2022/06/22 02:50:19;;;;;;;14.35;7.93;;;10.70;99.90;;;;;;4949693;29;20031;-55
2022/06/22 02:52:52;;;;;;;14.45;7.65;;;10.70;99.90;;;;;;4949717;29;20023;-55
2022/06/22 02:55:22;;;;;;;10.77;7.60;;;10.80;99.90;;;;;;4949848;29;20470;-55
2022/06/22 02:57:53;;;;;;;15.77;8.82;;;10.90;99.90;;;;;;4949369;29;20039;-55
2022/06/22 03:00:24;;;;;;;12.70;7.63;;;10.90;99.90;;;;;;4949518;29;20453;-56
2022/06/22 03:02:55;;;;;;;15.88;8.02;;;10.90;99.90;;;;;;4949462;28;20128;-55
2022/06/22 03:05:23;;;;;;;11.68;8.30;;;10.70;99.90;;;;;;4949407;28;20031;-55
2022/06/22 03:07:52;;;;;;;12.52;7.60;;;10.60;99.90;;;;;;4949404;29;20046;-55
2022/06/22 03:10:25;;;;;;;11.18;7.45;;;10.60;99.90;;;;;;4949317;29;20031;-56
2022/06/22 03:12:54;;;;;;;13.00;7.30;;;10.50;99.90;;;;;;4949357;29;20077;-56
2022/06/22 03:15:23;;;;;;;13.13;7.78;;;10.50;99.90;;;;;;4949460;28;20027;-56
2022/06/22 03:17:50;;;;;;;11.63;7.68;;;10.40;99.90;;;;;;4935123;29;20093;-55
2022/06/22 03:20:21;;;;;;;11.70;7.57;;;10.40;99.90;;;;;;4952898;28;20506;-55
2022/06/22 03:22:58;;;;;;;12.93;7.28;;;10.60;99.90;;;;;;4952788;29;20118;-55
2022/06/22 03:25:51;;;;;;;11.52;7.05;;;10.70;99.90;;;;;;4952869;29;20039;-55
2022/06/22 03:28:24;;;;;;;10.98;6.90;;;10.70;99.90;;;;;;4935276;29;20055;-55
2022/06/22 03:30:58;;;;;;;14.35;7.68;;;10.70;99.90;;;;;;4952648;29;20047;-55
2022/06/22 03:33:37;;;;;;;11.23;7.00;;;10.60;99.90;;;;;;4951678;29;20027;-55
2022/06/22 03:36:19;;;;;;;13.43;7.55;;;10.70;99.90;;;;;;4952622;29;20065;-55
2022/06/22 03:39:09;;;;;;;11.25;7.00;;;10.70;99.90;;;;;;4952390;29;20035;-55
2022/06/22 03:41:42;;;;;;;12.50;7.57;;;10.80;99.90;;;;;;4951803;29;20036;-54
2022/06/22 03:44:27;;;;;;;12.90;7.82;;;10.90;99.90;;;;;;4952578;29;20039;-54
2022/06/22 03:47:02;;;;;;;9.80;6.90;;;10.80;99.90;;;;;;4952483;29;20047;-55
2022/06/22 03:49:31;;;;;;;15.07;8.15;;;11.00;99.90;;;;;;4952070;29;20047;-54
2022/06/22 03:52:02;;;;;;;14.05;7.57;;;10.90;99.90;;;;;;4952126;29;20504;-54
2022/06/22 03:54:35;;;;;;;12.43;7.25;;;11.00;99.90;;;;;;4952299;29;20043;-55
2022/06/22 03:57:07;;;;;;;14.77;7.80;;;11.00;99.90;;;;;;4952320;29;20088;-54
2022/06/22 03:59:38;;;;;;;11.85;6.65;;;10.90;99.90;;;;;;4952060;28;20493;-54
2022/06/22 04:02:04;;;;;;;10.65;7.15;;;11.00;99.90;;;;;;4951991;29;20145;-54
2022/06/22 04:04:30;;;;;;;13.00;7.45;;;11.10;99.90;;;;;;4950789;29;20178;-55
2022/06/22 04:06:56;;;;;;;16.50;7.90;;;11.10;99.90;;;;;;4952116;29;20046;-55
2022/06/22 04:09:25;;;;;;;9.68;7.40;;;11.10;99.90;;;;;;4951928;28;20051;-54
2022/06/22 04:12:01;;;;;;;12.65;7.22;;;11.30;99.90;;;;;;4951939;29;20035;-54
2022/06/22 04:14:36;;;;;;;13.55;7.15;;;11.50;99.90;;;;;;4934558;29;20031;-54
2022/06/22 04:17:29;;;;;;;12.07;7.40;;;11.50;99.90;;;;;;4951820;29;20548;-55
2022/06/22 04:20:04;;;;;;;10.60;6.65;;;11.60;99.90;;;;;;4951822;28;20561;-55
2022/06/22 04:22:36;;;;;;;19.08;8.23;;;11.70;99.90;;;;;;4951692;29;20023;-54
2022/06/22 04:25:24;;;;;;;13.18;7.00;;;11.80;99.90;;;;;;4951672;29;20023;-54
2022/06/22 04:27:52;;;;;;;13.52;8.07;;;11.90;99.90;;;;;;4950845;28;20042;-54
2022/06/22 04:30:27;;;;;;;12.95;8.60;;;11.90;99.90;;;;;;4951875;29;20032;-54
2022/06/22 04:34:00;;;;;;;13.25;8.35;;;11.90;99.90;;;;;;4950984;29;20062;-54
2022/06/22 04:36:31;;;;;;;14.25;8.15;;;11.90;99.90;;;;;;4923260;29;20424;-55
2022/06/22 04:39:27;;;;;;;14.27;8.48;;;12.00;99.90;;;;;;4944615;29;20035;-54
2022/06/22 04:41:53;;;;;;;19.30;8.65;;;12.10;99.90;;;;;;4951507;29;20027;-54
2022/06/22 04:44:30;;;;;;;15.48;8.38;;;12.20;99.90;;;;;;4951639;29;20114;-54
2022/06/22 04:47:07;;;;;;;14.95;8.45;;;12.30;99.90;;;;;;4951667;29;20161;-55
2022/06/22 04:49:42;;;;;;;13.60;9.63;;;12.40;99.90;;;;;;4951253;29;20039;-54
2022/06/22 04:52:31;;;;;;;19.85;9.38;;;12.50;99.90;;;;;;4951950;28;20027;-55
2022/06/22 04:55:01;;;;;;;21.20;12.27;;;12.60;99.90;;;;;;4970968;28;20031;-54
2022/06/22 04:57:37;;;;;;;24.67;10.88;;;12.70;99.90;;;;;;4960800;28;20023;-55
2022/06/22 05:00:19;;;;;;;18.65;10.88;;;12.80;99.90;;;;;;4951647;29;20032;-55
2022/06/22 05:02:47;;;;;;;16.98;10.23;;;12.80;99.90;;;;;;4951108;28;20055;-54
2022/06/22 05:05:24;;;;;;;13.73;9.65;;;12.90;99.90;;;;;;4951537;29;20031;-54
2022/06/22 05:08:01;;;;;;;22.53;10.43;;;13.00;99.90;;;;;;4955644;28;20093;-55
2022/06/22 05:10:46;;;;;;;20.70;11.27;;;13.10;99.90;;;;;;4939139;28;20063;-55
2022/06/22 05:13:19;;;;;;;30.70;10.63;;;13.20;99.90;;;;;;4947678;28;20032;-55
2022/06/22 05:15:48;;;;;;;15.77;9.95;;;13.30;99.90;;;;;;4941176;29;20032;-55
2022/06/22 05:18:35;;;;;;;20.10;10.75;;;13.40;99.90;;;;;;4945007;28;20039;-54
2022/06/22 05:21:25;;;;;;;18.88;10.07;;;13.50;99.90;;;;;;4985912;28;20040;-55
2022/06/22 05:23:55;;;;;;;18.05;10.38;;;13.60;99.90;;;;;;4987875;28;20481;-55
2022/06/22 05:26:24;;;;;;;19.23;10.27;;;13.70;99.90;;;;;;4995250;28;20018;-55
2022/06/22 05:28:58;;;;;;;23.70;9.68;;;13.80;99.90;;;;;;4969042;28;20044;-55
2022/06/22 05:31:34;;;;;;;17.63;9.73;;;13.90;99.90;;;;;;4945851;28;20058;-55
2022/06/22 05:34:08;;;;;;;109.93;16.38;;;14.00;99.90;;;;;;4932298;29;20023;-55
2022/06/22 05:36:40;;;;;;;25.85;8.93;;;14.20;99.90;;;;;;4949655;29;20038;-54
2022/06/22 05:39:06;;;;;;;17.35;9.63;;;14.20;99.90;;;;;;4939592;29;20024;-54
2022/06/22 05:41:36;;;;;;;16.77;9.18;;;14.30;99.90;;;;;;4940038;29;20035;-55
2022/06/22 05:44:07;;;;;;;14.90;8.88;;;14.40;99.90;;;;;;4940877;28;20042;-55
2022/06/22 05:46:34;;;;;;;16.58;7.32;;;14.50;99.90;;;;;;4949117;28;20829;-55
2022/06/22 05:49:00;;;;;;;17.48;8.10;;;14.60;99.90;;;;;;4950614;28;20086;-55
2022/06/22 05:51:41;;;;;;;13.85;8.23;;;14.70;99.90;;;;;;4935371;29;20038;-55
2022/06/22 05:54:18;;;;;;;14.27;7.43;;;14.70;99.90;;;;;;4950172;29;20066;-55
2022/06/22 05:57:06;;;;;;;7.97;4.70;;;14.80;99.90;;;;;;4950326;29;20055;-56
2022/06/22 06:00:00;;;;;;;13.35;7.43;;;15.00;99.90;;;;;;4942466;29;20035;-54
2022/06/22 06:02:39;;;;;;;12.50;5.35;;;15.00;99.90;;;;;;4938520;28;20397;-52
2022/06/22 06:05:27;;;;;;;10.93;6.03;;;15.10;99.90;;;;;;5004305;28;20035;-54
2022/06/22 06:07:56;;;;;;;9.70;5.60;;;15.20;99.90;;;;;;4950123;28;20102;-56
2022/06/22 06:10:24;;;;;;;14.77;5.93;;;15.30;99.90;;;;;;4950495;28;20031;-56
2022/06/22 06:13:16;;;;;;;10.57;5.20;;;15.30;99.90;;;;;;4950122;28;20023;-56
2022/06/22 06:15:43;;;;;;;18.58;5.25;;;15.40;99.90;;;;;;4945507;29;20040;-56
2022/06/22 06:18:16;;;;;;;8.90;5.35;;;15.50;99.90;;;;;;4950475;28;20042;-57
2022/06/22 06:20:46;;;;;;;9.20;5.63;;;15.70;99.90;;;;;;4972676;28;20597;-55
2022/06/22 06:23:35;;;;;;;12.20;5.22;;;15.70;99.90;;;;;;4995034;28;20032;-57
2022/06/22 06:29:17;;;;;;;10.43;4.70;;;16.00;99.90;;;;;;4980422;28;20062;-56
2022/06/22 06:32:09;;;;;;;9.90;4.15;;;16.00;99.90;;;;;;4947679;29;20377;-55
2022/06/22 06:34:51;;;;;;;10.25;4.55;;;16.00;99.90;;;;;;4949824;28;20448;-54
2022/06/22 06:37:24;;;;;;;8.15;4.25;;;16.20;99.90;;;;;;4949721;29;20084;-55
2022/06/22 06:39:54;;;;;;;5.85;3.30;;;16.20;99.90;;;;;;4949790;29;20039;-55
2022/06/22 06:42:54;;;;;;;6.13;3.30;;;16.30;99.90;;;;;;4949862;29;20023;-54
2022/06/22 06:45:23;;;;;;;5.13;2.60;;;16.30;99.90;;;;;;4959788;28;20039;-54
2022/06/22 06:47:52;;;;;;;4.88;2.78;;;16.30;99.90;;;;;;4949728;29;20041;-54
2022/06/22 06:50:34;;;;;;;9.57;3.85;;;16.40;99.90;;;;;;4949386;29;20023;-54
2022/06/22 06:53:05;;;;;;;9.07;3.42;;;16.70;99.90;;;;;;4949355;29;20122;-53
2022/06/22 06:55:50;;;;;;;8.60;3.20;;;16.70;99.90;;;;;;4949708;29;20027;-54
2022/06/22 06:58:40;;;;;;;11.77;3.95;;;16.70;99.90;;;;;;4949588;29;20122;-55
2022/06/22 07:01:08;;;;;;;5.38;2.42;;;16.70;99.90;;;;;;4940727;28;20039;-55
2022/06/22 07:03:38;;;;;;;6.28;2.85;;;16.80;99.90;;;;;;4930297;29;20070;-55
2022/06/22 07:06:04;;;;;;;4.95;2.08;;;17.00;99.90;;;;;;4930828;28;20093;-55
2022/06/22 07:08:35;;;;;;;6.47;2.70;;;17.20;99.90;;;;;;4930358;29;20036;-55
2022/06/22 07:11:18;;;;;;;6.00;2.53;;;17.20;99.90;;;;;;4930329;28;20031;-53
2022/06/22 07:13:46;;;;;;;6.55;2.67;;;17.20;99.90;;;;;;4930195;28;20074;-53
2022/06/22 07:16:15;;;;;;;5.65;2.72;;;17.20;99.90;;;;;;4930308;29;20052;-54
2022/06/22 07:19:04;;;;;;;4.72;2.63;;;17.40;99.90;;;;;;4938786;29;20042;-54
2022/06/22 07:21:54;;;;;;;4.88;2.00;;;17.50;99.90;;;;;;4949316;29;20023;-54
2022/06/22 07:24:43;;;;;;;6.43;2.42;;;17.50;99.90;;;;;;4949140;29;20037;-55
2022/06/22 07:27:12;;;;;;;4.97;1.98;;;17.50;99.90;;;;;;4949428;28;20027;-55
2022/06/22 07:30:00;;;;;;;4.55;1.80;;;17.50;99.90;;;;;;4949358;29;20035;-55
2022/06/22 07:32:49;;;;;;;9.18;2.92;;;17.70;99.90;;;;;;4949134;29;20035;-55
2022/06/22 07:35:33;;;;;;;6.47;1.55;;;17.70;99.90;;;;;;4945743;29;20122;-53
2022/06/22 07:38:20;;;;;;;2.88;1.10;;;18.00;99.90;;;;;;4949151;29;20035;-55
2022/06/22 07:43:32;;;;;;;5.35;1.55;;;18.10;99.00;;;;;;4930107;29;20035;-54
2022/06/22 07:45:59;;;;;;;5.57;1.52;;;18.10;97.70;;;;;;4929951;28;20488;-53
2022/06/22 07:48:26;;;;;;;5.35;1.88;;;18.10;97.80;;;;;;4930095;28;20036;-54
2022/06/22 07:50:58;;;;;;;4.43;1.63;;;18.20;97.80;;;;;;4929819;28;20031;-55
2022/06/22 07:53:33;;;;;;;3.92;1.40;;;18.20;93.40;;;;;;4929597;28;20574;-55
2022/06/22 07:56:02;;;;;;;5.60;1.88;;;18.30;99.10;;;;;;4929962;28;20134;-54
2022/06/22 07:58:39;;;;;;;5.00;1.92;;;18.40;92.60;;;;;;4931794;29;20032;-55
2022/06/22 08:01:19;;;;;;;3.28;1.27;;;18.50;94.60;;;;;;4948972;29;20084;-58
2022/06/22 08:04:07;;;;;;;9.25;2.10;;;18.60;88.30;;;;;;4950343;29;20089;-54
2022/06/22 08:07:03;;;;;;;4.57;1.87;;;18.60;91.60;;;;;;4952086;29;20027;-55
2022/06/22 08:09:55;;;;;;;5.60;3.47;;;18.70;92.30;;;;;;4951833;29;20039;-55
2022/06/22 08:12:56;;;;;;;6.88;1.95;;;18.80;94.30;;;;;;4952055;28;20441;-54
2022/06/22 08:15:23;;;;;;;7.75;2.30;;;18.90;89.70;;;;;;4951992;29;20055;-53
2022/06/22 08:17:55;;;;;;;3.53;1.90;;;19.00;91.00;;;;;;4951754;29;20038;-53
2022/06/22 08:20:24;;;;;;;3.63;1.63;;;19.00;91.40;;;;;;4951744;29;20043;-53
2022/06/22 08:22:51;;;;;;;7.47;2.28;;;19.20;91.90;;;;;;4952035;29;20023;-61
2022/06/22 08:25:19;;;;;;;3.97;1.83;;;19.20;91.70;;;;;;4951832;28;20581;-61
2022/06/22 08:27:45;;;;;;;4.03;1.90;;;19.10;90.90;;;;;;4951616;29;20390;-60
2022/06/22 08:30:14;;;;;;;4.22;2.17;;;19.30;92.80;;;;;;4951743;29;20028;-61
2022/06/22 08:32:52;;;;;;;7.03;1.90;;;19.40;92.70;;;;;;4951686;28;20031;-60
2022/06/22 08:35:23;;;;;;;4.97;2.08;;;19.20;92.40;;;;;;4951741;29;20382;-57
2022/06/22 08:38:02;;;;;;;6.38;2.05;;;19.40;95.60;;;;;;4951729;29;20027;-59
2022/06/22 08:40:45;;;;;;;4.53;1.92;;;19.60;96.00;;;;;;4951819;28;20039;-58
2022/06/22 08:43:57;;;;;;;4.45;1.75;;;19.60;92.40;;;;;;4951717;29;20023;-57
2022/06/22 08:47:01;;;;;;;4.20;1.90;;;19.90;90.90;;;;;;4956516;28;20410;-58
2022/06/22 08:50:06;;;;;;;4.68;1.70;;;19.90;92.00;;;;;;4950302;29;20486;-60
2022/06/22 08:53:07;;;;;;;5.97;1.77;;;20.00;89.10;;;;;;4929709;29;20398;-58
2022/06/22 08:55:41;;;;;;;8.20;1.48;;;20.00;86.00;;;;;;4910713;29;20086;-57
2022/06/22 08:58:24;;;;;;;6.22;1.73;;;19.90;84.90;;;;;;4950519;29;20108;-59
2022/06/22 09:01:15;;;;;;;5.43;1.90;;;19.90;85.20;;;;;;4947838;29;20466;-57
2022/06/22 09:03:43;;;;;;;5.40;1.83;;;20.30;93.50;;;;;;4948970;28;20104;-57
2022/06/22 09:06:27;;;;;;;7.22;1.77;;;20.30;90.50;;;;;;4950294;29;20371;-59
2022/06/22 09:09:07;;;;;;;5.88;1.98;;;20.60;88.80;;;;;;4948605;29;20511;-57
2022/06/22 09:12:10;;;;;;;10.05;1.60;;;20.50;84.70;;;;;;4934035;29;20118;-58
2022/06/22 09:14:50;;;;;;;4.80;1.70;;;20.60;88.00;;;;;;4950718;28;20077;-60
2022/06/22 09:17:34;;;;;;;2.78;1.42;;;20.90;89.00;;;;;;4951416;28;20031;-59
2022/06/22 09:20:09;;;;;;;3.75;1.25;;;21.00;82.20;;;;;;4951062;29;20031;-57
2022/06/22 09:22:58;;;;;;;4.80;1.85;;;21.00;86.50;;;;;;4951106;28;20479;-56
2022/06/22 09:25:50;;;;;;;11.52;1.20;;;21.20;88.40;;;;;;4951295;28;20070;-57
2022/06/22 09:28:38;;;;;;;10.10;1.75;;;21.60;86.20;;;;;;4930067;29;20490;-57
2022/06/22 09:31:24;;;;;;;5.57;2.10;;;21.70;78.70;;;;;;4931898;29;20079;-58
2022/06/22 09:33:59;;;;;;;12.93;1.38;;;21.90;82.70;;;;;;4932070;29;20087;-57
2022/06/22 09:36:34;;;;;;;3.45;1.13;;;22.00;77.20;;;;;;4931927;29;20035;-57
2022/06/22 09:39:30;;;;;;;3.78;0.82;;;22.20;75.00;;;;;;4931903;29;20039;-56
2022/06/22 09:42:19;;;;;;;11.30;1.20;;;22.20;75.40;;;;;;4931448;28;20040;-55
2022/06/22 09:44:45;;;;;;;4.30;0.70;;;22.40;75.90;;;;;;4931572;29;20507;-56
2022/06/22 09:47:27;;;;;;;14.73;1.60;;;22.60;73.60;;;;;;4931498;29;20089;-57
2022/06/22 09:50:05;;;;;;;3.20;0.90;;;22.70;74.30;;;;;;4931622;29;20126;-56
2022/06/22 09:52:49;;;;;;;5.40;1.05;;;22.70;69.30;;;;;;4941814;29;20034;-56
2022/06/22 09:59:05;;;;;;;2.42;1.08;;;23.00;73.60;;;;;;4948374;29;20084;-58
2022/06/22 10:01:55;;;;;;;4.57;1.15;;;23.30;70.20;;;;;;4948878;29;20031;-55
2022/06/22 10:05:05;;;;;;;5.57;1.95;;;23.10;71.20;;;;;;4950492;29;20027;-57
2022/06/22 10:07:37;;;;;;;3.70;1.10;;;23.50;69.40;;;;;;4928612;29;20032;-57
2022/06/22 10:10:23;;;;;;;3.83;1.38;;;23.70;72.80;;;;;;4932586;29;20085;-56
2022/06/22 10:13:10;;;;;;;4.65;1.38;;;23.90;70.80;;;;;;4946362;29;20078;-57
2022/06/22 10:15:51;;;;;;;8.47;1.97;;;24.20;70.90;;;;;;4950412;29;20081;-57
2022/06/22 10:18:35;;;;;;;7.20;1.10;;;24.00;69.00;;;;;;4950638;28;20028;-57
2022/06/22 10:21:24;;;;;;;4.05;1.52;;;24.00;68.20;;;;;;4950208;29;20040;-58
2022/06/22 10:24:22;;;;;;;3.90;1.70;;;24.30;76.10;;;;;;4950217;29;20028;-58
2022/06/22 10:27:09;;;;;;;7.40;1.17;;;24.10;68.40;;;;;;4931734;28;20031;-56
2022/06/22 10:30:05;;;;;;;3.33;1.13;;;24.20;68.40;;;;;;4949971;29;20065;-57
2022/06/22 10:32:46;;;;;;;2.83;1.00;;;23.80;67.40;;;;;;4949255;29;20031;-57
2022/06/22 10:35:18;;;;;;;3.58;1.25;;;24.20;74.20;;;;;;4943986;28;20045;-57
2022/06/22 10:38:05;;;;;;;3.83;1.30;;;24.00;68.80;;;;;;4928063;29;20032;-59
2022/06/22 10:46:52;;;;;;;6.63;1.30;;;24.40;69.80;;;;;;4948739;29;20070;-58
2022/06/22 10:49:46;;;;;;;17.75;2.28;;;24.70;69.60;;;;;;4949615;29;20031;-58
2022/06/22 10:52:48;;;;;;;4.57;1.40;;;24.70;66.50;;;;;;4949817;29;20020;-57
2022/06/22 10:55:45;;;;;;;10.18;1.38;;;24.80;66.20;;;;;;4949932;29;20109;-57
2022/06/22 10:58:26;;;;;;;6.85;1.65;;;24.80;66.50;;;;;;4949681;29;20038;-57
2022/06/22 11:01:07;;;;;;;4.90;0.93;;;25.20;70.00;;;;;;4949686;29;20501;-57
2022/06/22 11:03:45;;;;;;;4.07;1.50;;;25.10;66.00;;;;;;4949609;29;20043;-57
2022/06/22 11:06:28;;;;;;;7.03;1.48;;;25.10;68.90;;;;;;4949682;29;20023;-58
2022/06/22 11:09:14;;;;;;;17.45;2.90;;;25.00;65.10;;;;;;4949318;29;20035;-57
2022/06/22 11:12:07;;;;;;;6.80;1.88;;;25.00;69.00;;;;;;4949755;29;20131;-58
2022/06/22 11:14:56;;;;;;;4.63;1.35;;;25.20;65.10;;;;;;4949099;28;20471;-58
2022/06/22 11:17:57;;;;;;;2.63;1.25;;;25.20;67.10;;;;;;4948994;29;20069;-58
2022/06/22 11:21:05;;;;;;;7.10;1.23;;;25.30;66.00;;;;;;4949399;28;20452;-60
2022/06/22 11:23:49;;;;;;;4.80;1.40;;;25.20;63.80;;;;;;4926549;29;20047;-58
2022/06/22 11:32:11;;;;;;;6.43;1.52;;;25.20;63.00;;;;;;4977511;28;20399;-58
2022/06/22 11:34:45;;;;;;;2.50;1.20;;;25.30;61.00;;;;;;4984445;28;20024;-58
2022/06/22 11:37:47;;;;;;;5.47;1.42;;;25.30;63.50;;;;;;4986896;28;20021;-57
2022/06/22 11:40:34;;;;;;;4.63;1.20;;;25.10;62.00;;;;;;4988015;28;20122;-57
2022/06/22 11:43:20;;;;;;;5.55;1.45;;;25.30;62.70;;;;;;4970159;28;20023;-56
2022/06/22 11:45:55;;;;;;;2.05;0.80;;;25.80;60.60;;;;;;4933273;28;20028;-56
2022/06/22 11:48:23;;;;;;;4.93;1.60;;;26.10;59.30;;;;;;4932969;28;20059;-59
2022/06/22 11:51:23;;;;;;;5.32;1.88;;;26.00;57.40;;;;;;4932338;29;20122;-53
2022/06/22 11:54:17;;;;;;;5.38;1.25;;;25.60;58.30;;;;;;4950893;29;20055;-55
2022/06/22 11:57:17;;;;;;;5.13;1.33;;;25.60;62.00;;;;;;4949153;28;20100;-56
2022/06/22 11:59:43;;;;;;;4.28;1.30;;;25.90;59.90;;;;;;4950390;29;20038;-58
2022/06/22 12:02:24;;;;;;;5.15;1.40;;;25.70;58.80;;;;;;4950616;29;20051;-58
2022/06/22 12:05:11;;;;;;;4.68;1.50;;;24.90;60.30;;;;;;4949985;28;20034;-57
2022/06/22 12:08:13;;;;;;;7.32;1.30;;;25.70;62.80;;;;;;4950569;29;20031;-56
2022/06/22 12:11:00;;;;;;;6.07;1.20;;;26.00;58.10;;;;;;4941093;29;20027;-56
2022/06/22 12:13:32;;;;;;;4.80;1.30;;;25.70;58.50;;;;;;4947464;28;20115;-55
2022/06/22 12:16:27;;;;;;;3.38;1.40;;;25.60;56.10;;;;;;4949034;29;20425;-58
2022/06/22 12:19:22;;;;;;;5.00;1.08;;;25.50;58.30;;;;;;4948283;29;20606;-59
2022/06/22 12:22:06;;;;;;;3.90;1.33;;;25.60;59.90;;;;;;4912589;28;20043;-58
2022/06/22 12:25:09;;;;;;;3.35;1.33;;;25.40;56.90;;;;;;4949446;29;20387;-56
2022/06/22 12:27:40;;;;;;;5.75;1.33;;;25.40;57.00;;;;;;4949404;29;20512;-58
2022/06/22 12:30:38;;;;;;;3.70;1.15;;;25.70;55.90;;;;;;4950812;28;20042;-58
2022/06/22 12:33:16;;;;;;;4.07;2.17;;;26.00;58.10;;;;;;4944365;29;20078;-59
2022/06/22 12:35:56;;;;;;;3.08;1.23;;;25.70;56.10;;;;;;4937196;29;20499;-57
2022/06/22 12:38:48;;;;;;;19.75;15.23;;;25.60;58.20;;;;;;4948685;29;20538;-59
2022/06/22 12:41:53;;;;;;;7.35;1.55;;;25.30;57.80;;;;;;4949802;29;20031;-56
2022/06/22 12:44:19;;;;;;;3.13;1.13;;;25.00;57.00;;;;;;4942525;29;20027;-57
2022/06/22 12:47:11;;;;;;;4.88;1.42;;;24.30;57.90;;;;;;4942377;29;20020;-57
2022/06/22 12:49:49;;;;;;;4.68;1.50;;;24.20;61.00;;;;;;4950251;28;20032;-59
2022/06/22 12:52:28;;;;;;;;;;;24.40;63.20;;;;;;4949134;29;20023;-58
2022/06/22 12:55:03;;;;;;;4.70;1.67;;;24.20;63.30;;;;;;4951953;29;19917;-60
2022/06/22 12:57:37;;;;;;;4.50;1.50;;;24.10;62.20;;;;;;4951530;29;20023;-60
2022/06/22 13:00:09;;;;;;;4.85;1.15;;;24.40;63.40;;;;;;4951697;29;20509;-60
2022/06/22 13:02:36;;;;;;;2.13;1.00;;;24.60;64.00;;;;;;4951518;28;20142;-59
2022/06/22 13:05:18;;;;;;;;;;;25.00;67.70;;;;;;4952243;28;20089;-57
2022/06/22 13:07:50;;;;;;;36.83;3.70;;;25.50;65.90;;;;;;4949748;29;19914;-60
2022/06/22 13:10:22;;;;;;;2.13;0.95;;;25.70;59.70;;;;;;4951184;28;20061;-59
2022/06/22 13:13:16;;;;;;;3.38;1.10;;;25.10;55.10;;;;;;4951056;28;20077;-58
2022/06/22 13:16:02;;;;;;;3.75;1.52;;;25.30;55.50;;;;;;4950306;29;20030;-58
2022/06/22 13:18:42;;;;;;;7.15;1.23;;;25.80;57.80;;;;;;4922421;28;20063;-57
2022/06/22 13:21:26;;;;;;;7.47;1.27;;;25.70;55.90;;;;;;4950367;29;20031;-59
2022/06/22 13:24:22;;;;;;;4.57;0.90;;;26.10;55.90;;;;;;4935246;29;20388;-59
2022/06/22 13:26:56;;;;;;;6.68;0.85;;;26.50;55.60;;;;;;4931429;29;20039;-59
2022/06/22 13:29:31;;;;;;;4.85;1.00;;;26.20;54.10;;;;;;4931106;29;20044;-57
2022/06/22 13:32:00;;;;;;;2.88;1.10;;;26.50;54.70;;;;;;4931304;28;20020;-58
2022/06/22 13:34:44;;;;;;;41.33;32.88;;;26.90;54.00;;;;;;4931150;29;20372;-58
2022/06/22 13:37:43;;;;;;;6.15;1.50;;;27.10;52.70;;;;;;4931151;29;20380;-58
2022/06/22 13:40:32;;;;;;;2.78;1.10;;;27.10;53.00;;;;;;4949272;28;20027;-58
2022/06/22 13:43:23;;;;;;;4.80;1.13;;;27.40;51.20;;;;;;4948402;29;20035;-58
2022/06/22 13:45:52;;;;;;;3.22;0.88;;;27.50;52.20;;;;;;4947829;28;20028;-57
2022/06/22 13:48:28;;;;;;;3.60;1.17;;;26.50;50.50;;;;;;4950435;28;20104;-60
2022/06/22 13:51:20;;;;;;;3.85;1.25;;;26.10;52.70;;;;;;4932458;29;20549;-58
2022/06/22 13:54:02;;;;;;;4.55;1.13;;;25.70;51.70;;;;;;4949512;29;20054;-59
2022/06/22 13:56:59;;;;;;;3.00;1.20;;;26.40;52.90;;;;;;4949602;29;20035;-59
2022/06/22 13:59:30;;;;;;;28.48;16.50;;;26.80;52.10;;;;;;4948897;29;20028;-60
2022/06/22 14:02:06;;;;;;;6.85;1.30;;;27.00;50.40;;;;;;4948667;28;20522;-59
2022/06/22 14:04:38;;;;;;;4.70;1.30;;;26.60;50.70;;;;;;4931334;29;20024;-58
2022/06/22 14:07:23;;;;;;;5.43;1.00;;;26.90;50.90;;;;;;4947860;29;20023;-58
2022/06/22 14:10:28;;;;;;;3.15;0.75;;;27.00;51.10;;;;;;4947879;29;20042;-57
2022/06/22 14:13:05;;;;;;;3.65;0.85;;;26.60;52.00;;;;;;4948307;29;20035;-59